createdAt,value
2024-02-29T00:00:33.272Z,29.63
2024-02-29T00:03:02.662Z,30.27
2024-02-29T00:05:30.605Z,30.63
2024-02-29T00:07:58.557Z,32.63
2024-02-29T00:10:26.528Z,30.60
2024-02-29T00:12:54.620Z,33.03
2024-02-29T00:15:23.508Z,30.83
2024-02-29T00:17:51.507Z,31.03
2024-02-29T00:20:20.780Z,30.67
2024-02-29T00:22:48.724Z,33.43
2024-02-29T00:25:16.849Z,30.40
2024-02-29T00:27:44.957Z,29.67
2024-02-29T00:30:13.520Z,29.70
2024-02-29T00:32:41.466Z,30.30
2024-02-29T00:35:10.255Z,27.63
2024-02-29T00:37:39.653Z,29.37
2024-02-29T00:40:09.221Z,33.33
2024-02-29T00:42:37.357Z,30.30
2024-02-29T00:45:06.327Z,30.70
2024-02-29T00:47:34.592Z,31.17
2024-02-29T00:50:02.548Z,31.40
2024-02-29T00:52:30.470Z,30.00
2024-02-29T00:54:59.809Z,33.97
2024-02-29T00:57:27.824Z,35.40
2024-02-29T00:59:55.780Z,33.83
2024-02-29T01:02:23.897Z,33.90
2024-02-29T01:04:52.252Z,31.97
2024-02-29T01:07:21.181Z,34.07
2024-02-29T01:09:49.628Z,33.33
2024-02-29T01:12:19.314Z,30.97
2024-02-29T01:14:47.227Z,34.43
2024-02-29T01:17:15.409Z,32.70
2024-02-29T01:19:43.828Z,35.13
2024-02-29T01:22:12.834Z,32.57
2024-02-29T01:24:41.736Z,33.30
2024-02-29T01:27:09.738Z,31.67
2024-02-29T01:29:41.373Z,30.80
2024-02-29T01:32:18.547Z,30.37
2024-02-29T01:34:50.679Z,33.00
2024-02-29T01:37:18.926Z,30.50
2024-02-29T01:39:46.840Z,30.90
2024-02-29T01:42:14.952Z,33.67
2024-02-29T01:44:54.738Z,34.43
2024-02-29T01:47:22.761Z,31.83
2024-02-29T01:49:51.481Z,33.57
2024-02-29T01:52:21.822Z,33.87
2024-02-29T01:54:49.878Z,33.27
2024-02-29T01:57:18.012Z,30.97
2024-02-29T01:59:48.940Z,35.47
2024-02-29T02:02:16.979Z,33.93
2024-02-29T02:04:44.961Z,31.90
2024-02-29T02:07:13.169Z,37.50
2024-02-29T02:09:42.499Z,35.60
2024-02-29T02:12:12.402Z,37.47
2024-02-29T02:14:40.914Z,37.93
2024-02-29T02:17:10.927Z,40.07
2024-02-29T02:19:40.757Z,38.23
2024-02-29T02:22:10.882Z,33.17
2024-02-29T02:24:39.255Z,35.63
2024-02-29T02:27:07.635Z,35.87
2024-02-29T02:29:35.582Z,33.00
2024-02-29T02:32:03.528Z,38.37
2024-02-29T02:34:31.617Z,33.67
2024-02-29T02:36:59.801Z,34.47
2024-02-29T02:39:29.210Z,31.87
2024-02-29T02:41:57.194Z,34.57
2024-02-29T02:44:25.092Z,29.93
2024-02-29T02:46:53.015Z,36.07
2024-02-29T02:49:20.949Z,32.87
2024-02-29T02:51:48.069Z,34.70
2024-02-29T02:54:16.021Z,33.57
2024-02-29T02:56:45.323Z,33.20
2024-02-29T02:59:13.525Z,34.73
2024-02-29T03:01:41.623Z,34.33
2024-02-29T03:04:09.720Z,36.03
2024-02-29T03:06:37.758Z,35.83
2024-02-29T03:09:06.378Z,34.63
2024-02-29T03:11:34.384Z,35.83
2024-02-29T03:14:03.991Z,34.83
2024-02-29T03:16:32.164Z,33.57
2024-02-29T03:19:00.118Z,35.27
2024-02-29T03:21:29.159Z,34.30
2024-02-29T03:23:57.144Z,36.20
2024-02-29T03:26:25.109Z,31.73
2024-02-29T03:28:53.068Z,34.90
2024-02-29T03:31:22.303Z,34.30
2024-02-29T03:33:50.331Z,36.60
2024-02-29T03:36:18.424Z,31.67
2024-02-29T03:38:46.554Z,32.33
2024-02-29T03:41:14.661Z,36.47
2024-02-29T03:43:42.556Z,29.27
2024-02-29T03:46:11.394Z,32.50
2024-02-29T03:48:40.838Z,37.07
2024-02-29T03:51:09.635Z,35.97
2024-02-29T03:53:37.758Z,41.03
2024-02-29T03:56:06.121Z,37.43
2024-02-29T03:58:34.050Z,36.57
2024-02-29T04:01:02.100Z,34.03
2024-02-29T04:03:30.083Z,37.13
2024-02-29T04:05:59.430Z,36.57
2024-02-29T04:08:27.402Z,33.80
2024-02-29T04:10:56.927Z,36.73
2024-02-29T04:13:24.874Z,40.30
2024-02-29T04:15:53.393Z,38.07
2024-02-29T04:18:21.576Z,38.97
2024-02-29T04:20:49.564Z,39.60
2024-02-29T04:23:19.024Z,39.07
2024-02-29T04:25:47.147Z,40.07
2024-02-29T04:28:16.073Z,38.20
2024-02-29T04:30:44.635Z,41.17
2024-02-29T04:33:13.540Z,40.73
2024-02-29T04:35:41.596Z,38.97
2024-02-29T04:38:09.602Z,37.10
2024-02-29T04:40:38.934Z,36.80
2024-02-29T04:43:06.931Z,37.10
2024-02-29T04:45:34.895Z,35.37
2024-02-29T04:48:03.492Z,39.37
2024-02-29T04:50:31.443Z,43.00
2024-02-29T04:52:59.325Z,34.60
2024-02-29T04:55:27.267Z,39.70
2024-02-29T04:57:57.144Z,38.43
2024-02-29T05:00:25.117Z,36.97
2024-02-29T05:02:53.266Z,35.73
2024-02-29T05:05:21.878Z,35.27
2024-02-29T05:07:49.823Z,36.57
2024-02-29T05:10:17.996Z,35.07
2024-02-29T05:12:51.251Z,37.40
2024-02-29T05:15:22.015Z,40.23
2024-02-29T05:17:50.090Z,38.60
2024-02-29T05:20:18.445Z,39.70
2024-02-29T05:22:46.405Z,35.13
2024-02-29T05:25:14.719Z,38.70
2024-02-29T05:27:43.207Z,37.43
2024-02-29T05:30:12.239Z,36.77
2024-02-29T05:32:41.581Z,36.87
2024-02-29T05:35:10.185Z,33.73
2024-02-29T05:37:38.139Z,35.17
2024-02-29T05:40:08.611Z,37.07
2024-02-29T05:42:36.684Z,37.37
2024-02-29T05:45:07.267Z,37.10
2024-02-29T05:47:35.234Z,38.30
2024-02-29T05:50:04.931Z,37.30
2024-02-29T05:52:32.879Z,39.63
2024-02-29T05:55:00.843Z,34.13
2024-02-29T05:57:31.863Z,38.47
2024-02-29T06:00:01.535Z,36.63
2024-02-29T06:02:38.713Z,37.53
2024-02-29T06:05:09.980Z,37.47
2024-02-29T06:07:38.657Z,34.07
2024-02-29T06:10:10.196Z,32.73
2024-02-29T06:12:38.895Z,32.30
2024-02-29T06:15:11.081Z,31.70
2024-02-29T06:17:39.967Z,35.17
2024-02-29T06:20:12.348Z,35.30
2024-02-29T06:22:41.744Z,36.77
2024-02-29T06:25:11.220Z,41.00
2024-02-29T06:27:40.310Z,37.87
2024-02-29T06:30:10.094Z,38.93
2024-02-29T06:32:41.583Z,36.77
2024-02-29T06:35:11.395Z,37.83
2024-02-29T06:37:41.621Z,37.90
2024-02-29T06:40:12.529Z,38.73
2024-02-29T06:42:42.025Z,38.83
2024-02-29T06:45:11.517Z,37.50
2024-02-29T06:50:11.862Z,37.57
2024-02-29T06:52:40.201Z,36.53
2024-02-29T06:55:09.685Z,39.67
2024-02-29T06:57:38.799Z,37.10
2024-02-29T07:00:08.809Z,38.30
2024-02-29T07:02:36.770Z,39.37
2024-02-29T07:05:05.150Z,36.30
2024-02-29T07:07:34.414Z,36.60
2024-02-29T07:10:06.007Z,36.73
2024-02-29T07:13:35.043Z,36.03
2024-02-29T07:16:04.183Z,37.77
2024-02-29T07:18:32.194Z,40.90
2024-02-29T07:21:00.295Z,34.70
2024-02-29T07:23:28.211Z,39.67
2024-02-29T07:25:56.424Z,33.20
2024-02-29T07:28:24.489Z,37.03
2024-02-29T07:30:53.842Z,36.40
2024-02-29T07:33:22.190Z,33.57
2024-02-29T07:35:50.154Z,39.43
2024-02-29T07:38:18.200Z,35.17
2024-02-29T07:40:46.242Z,33.93
2024-02-29T07:43:14.308Z,31.27
2024-02-29T07:45:42.283Z,34.23
2024-02-29T07:48:12.068Z,34.83
2024-02-29T07:50:40.332Z,33.93
2024-02-29T07:53:09.508Z,33.93
2024-02-29T07:55:38.127Z,34.33
2024-02-29T07:58:07.741Z,35.43
2024-02-29T08:00:37.299Z,32.37
2024-02-29T08:03:05.750Z,37.17
2024-02-29T08:05:36.192Z,40.63
2024-02-29T08:08:04.252Z,39.50
2024-02-29T08:10:32.183Z,36.63
2024-02-29T08:13:00.381Z,34.80
2024-02-29T08:15:28.323Z,36.47
2024-02-29T08:17:56.356Z,35.03
2024-02-29T08:20:26.501Z,35.10
2024-02-29T08:22:57.936Z,36.57
2024-02-29T08:25:27.489Z,33.10
2024-02-29T08:27:56.302Z,34.00
2024-02-29T08:30:24.523Z,31.97
2024-02-29T08:32:53.817Z,31.80
2024-02-29T08:35:22.028Z,35.70
2024-02-29T08:37:50.097Z,30.13
2024-02-29T08:40:20.699Z,35.10
2024-02-29T08:42:48.710Z,31.33
2024-02-29T08:45:18.493Z,32.63
2024-02-29T08:47:48.760Z,31.10
2024-02-29T08:50:16.942Z,29.60
2024-02-29T08:52:45.061Z,36.10
2024-02-29T08:55:13.116Z,40.77
2024-02-29T08:57:42.617Z,31.63
2024-02-29T09:00:12.826Z,29.43
2024-02-29T09:02:40.784Z,29.93
2024-02-29T09:05:09.794Z,31.43
2024-02-29T09:07:37.807Z,32.77
2024-02-29T09:10:06.693Z,33.37
2024-02-29T09:12:35.599Z,29.03
2024-02-29T09:15:05.466Z,32.10
2024-02-29T09:17:33.519Z,30.60
2024-02-29T09:20:01.704Z,30.87
2024-02-29T09:22:29.865Z,30.70
2024-02-29T09:24:57.875Z,28.73
2024-02-29T09:27:25.971Z,28.27
2024-02-29T09:29:55.472Z,27.17
2024-02-29T09:32:26.164Z,26.07
2024-02-29T09:34:54.113Z,28.73
2024-02-29T09:37:22.029Z,27.33
2024-02-29T09:39:50.125Z,26.03
2024-02-29T09:42:18.366Z,29.53
2024-02-29T09:44:46.429Z,26.40
2024-02-29T09:47:15.599Z,25.40
2024-02-29T09:49:49.149Z,29.73
2024-02-29T09:52:20.829Z,31.07
2024-02-29T09:54:49.437Z,29.87
2024-02-29T09:57:17.590Z,28.97
2024-02-29T09:59:45.542Z,28.00
2024-02-29T10:02:16.966Z,27.60
2024-02-29T10:04:47.394Z,29.47
2024-02-29T10:07:16.082Z,29.40
2024-02-29T10:09:45.237Z,29.20
2024-02-29T10:12:17.569Z,31.80
2024-02-29T10:14:46.770Z,29.37
2024-02-29T10:17:14.786Z,27.93
2024-02-29T10:19:42.704Z,28.47
2024-02-29T10:22:12.068Z,27.17
2024-02-29T10:24:40.038Z,29.07
2024-02-29T10:27:08.319Z,28.33
2024-02-29T10:29:36.474Z,27.90
2024-02-29T10:32:05.000Z,28.43
2024-02-29T10:34:32.987Z,27.07
2024-02-29T10:37:01.603Z,28.93
2024-02-29T10:39:31.042Z,28.00
2024-02-29T10:41:59.749Z,29.37
2024-02-29T10:44:32.727Z,28.43
2024-02-29T10:47:08.572Z,29.50
2024-02-29T10:49:40.287Z,29.90
2024-02-29T10:52:11.634Z,30.73
2024-02-29T10:54:51.213Z,28.87
2024-02-29T10:57:25.290Z,27.10
2024-02-29T11:00:00.237Z,24.90
2024-02-29T11:02:28.920Z,29.27
2024-02-29T11:04:59.612Z,28.40
2024-02-29T11:07:28.696Z,28.07
2024-02-29T11:09:58.745Z,27.13
2024-02-29T11:12:29.470Z,28.37
2024-02-29T11:14:59.881Z,26.70
2024-02-29T11:17:30.397Z,29.77
2024-02-29T11:19:59.203Z,28.40
2024-02-29T11:22:34.113Z,24.97
2024-02-29T11:25:10.844Z,25.73
2024-02-29T11:27:47.267Z,28.60
2024-02-29T11:30:18.980Z,26.43
2024-02-29T11:32:47.103Z,26.43
2024-02-29T11:35:25.366Z,24.63
2024-02-29T11:37:56.116Z,27.50
2024-02-29T11:40:26.944Z,26.37
2024-02-29T11:43:00.671Z,23.87
2024-02-29T11:45:28.844Z,28.73
2024-02-29T11:47:56.931Z,27.27
2024-02-29T11:50:25.627Z,24.43
2024-02-29T11:52:57.418Z,24.90
2024-02-29T11:55:26.792Z,23.87
2024-02-29T11:57:56.171Z,23.20
2024-02-29T12:00:24.237Z,22.30
2024-02-29T12:02:52.234Z,24.97
2024-02-29T12:05:21.318Z,21.27
2024-02-29T12:07:49.622Z,19.63
2024-02-29T12:10:17.732Z,20.87
2024-02-29T12:12:47.252Z,21.77
2024-02-29T12:15:15.602Z,20.47
2024-02-29T12:17:44.499Z,22.43
2024-02-29T12:20:17.980Z,19.23
2024-02-29T12:22:46.390Z,20.33
2024-02-29T12:25:15.169Z,22.43
2024-02-29T12:27:44.140Z,20.30
2024-02-29T12:30:15.224Z,19.03
2024-02-29T12:32:44.594Z,17.67
2024-02-29T12:35:14.536Z,19.77
2024-02-29T12:37:44.108Z,19.67
2024-02-29T12:40:14.246Z,16.37
2024-02-29T12:42:43.957Z,18.80
2024-02-29T12:45:15.970Z,18.37
2024-02-29T12:47:46.141Z,19.10
2024-02-29T12:50:14.096Z,20.60
2024-02-29T12:52:42.041Z,20.77
2024-02-29T12:55:11.245Z,16.63
2024-02-29T12:57:39.859Z,18.07
2024-02-29T13:00:10.184Z,16.77
2024-02-29T13:02:40.320Z,16.40
2024-02-29T13:05:08.952Z,15.97
2024-02-29T13:07:37.144Z,17.13
2024-02-29T13:10:06.809Z,15.63
2024-02-29T13:12:34.840Z,13.60
2024-02-29T13:15:02.866Z,14.50
2024-02-29T13:17:31.337Z,15.33
2024-02-29T13:20:00.859Z,15.67
2024-02-29T13:22:28.934Z,14.17
2024-02-29T13:24:56.980Z,13.67
2024-02-29T13:27:25.081Z,15.90
2024-02-29T13:29:53.081Z,13.10
2024-02-29T13:32:22.719Z,14.77
2024-02-29T13:34:51.239Z,12.93
2024-02-29T13:37:21.038Z,15.57
2024-02-29T13:39:49.315Z,12.63
2024-02-29T13:42:18.059Z,11.67
2024-02-29T13:44:46.735Z,13.53
2024-02-29T13:47:15.073Z,12.87
2024-02-29T13:49:44.256Z,12.20
2024-02-29T13:52:18.039Z,14.17
2024-02-29T13:54:49.052Z,12.67
2024-02-29T13:57:17.464Z,13.07
2024-02-29T13:59:45.537Z,16.13
2024-02-29T14:02:13.979Z,13.03
2024-02-29T14:04:42.234Z,15.17
2024-02-29T14:07:10.253Z,14.03
2024-02-29T14:09:39.175Z,12.10
2024-02-29T14:12:09.318Z,13.57
2024-02-29T14:14:37.386Z,14.57
2024-02-29T14:17:05.617Z,11.73
2024-02-29T14:19:34.459Z,13.27
2024-02-29T14:22:02.452Z,13.73
2024-02-29T14:24:30.393Z,12.03
2024-02-29T14:26:58.381Z,14.17
2024-02-29T14:29:27.753Z,14.00
2024-02-29T14:31:55.681Z,12.17
2024-02-29T14:34:23.798Z,12.67
2024-02-29T14:36:52.086Z,11.43
2024-02-29T14:39:21.142Z,12.80
2024-02-29T14:41:49.296Z,14.40
2024-02-29T14:44:17.337Z,13.83
2024-02-29T14:46:46.963Z,13.07
2024-02-29T14:49:15.450Z,12.93
2024-02-29T14:51:43.477Z,14.33
2024-02-29T14:54:11.452Z,18.43
2024-02-29T14:56:39.991Z,15.30
2024-02-29T14:59:09.189Z,13.47
2024-02-29T15:01:37.266Z,14.07
2024-02-29T15:04:06.869Z,14.07
2024-02-29T15:06:35.279Z,14.13
2024-02-29T15:09:04.176Z,14.57
2024-02-29T15:11:32.160Z,12.93
2024-02-29T15:14:01.080Z,15.80
2024-02-29T15:16:29.501Z,14.90
2024-02-29T15:18:57.955Z,15.47
2024-02-29T15:21:27.380Z,17.13
2024-02-29T15:23:55.341Z,18.80
2024-02-29T15:26:23.418Z,18.43
2024-02-29T15:28:52.213Z,14.47
2024-02-29T15:31:20.717Z,15.37
2024-02-29T15:33:48.772Z,14.67
2024-02-29T15:36:16.734Z,17.77
2024-02-29T15:38:46.633Z,16.23
2024-02-29T15:41:14.607Z,17.53
2024-02-29T15:43:42.557Z,18.97
2024-02-29T15:46:10.640Z,18.23
2024-02-29T15:48:38.663Z,18.07
2024-02-29T15:51:07.411Z,17.63
2024-02-29T15:53:35.441Z,16.57
2024-02-29T15:56:05.408Z,17.50
2024-02-29T15:58:33.710Z,16.97
2024-02-29T16:01:01.955Z,17.00
2024-02-29T16:03:30.006Z,15.97
2024-02-29T16:05:57.942Z,20.03
2024-02-29T16:08:26.266Z,19.67
2024-02-29T16:10:54.451Z,36.57
2024-02-29T16:13:23.820Z,22.20
2024-02-29T16:15:51.876Z,17.33
2024-02-29T16:18:19.856Z,18.77
2024-02-29T16:20:47.840Z,19.50
2024-02-29T16:23:15.754Z,15.17
2024-02-29T16:25:46.635Z,17.93
2024-02-29T16:28:16.379Z,18.83
2024-02-29T16:30:45.883Z,21.10
2024-02-29T16:33:14.034Z,20.23
2024-02-29T16:35:42.585Z,25.03
2024-02-29T16:38:10.857Z,22.87
2024-02-29T16:40:38.857Z,22.20
2024-02-29T16:43:07.178Z,23.20
2024-02-29T16:45:35.561Z,23.87
2024-02-29T16:48:05.577Z,26.70
2024-02-29T16:50:34.051Z,23.50
2024-02-29T16:53:02.075Z,23.27
2024-02-29T16:55:30.022Z,26.27
2024-02-29T16:57:58.366Z,24.17
2024-02-29T17:00:26.368Z,23.27
2024-02-29T17:02:54.294Z,29.10
2024-02-29T17:05:23.771Z,26.80
2024-02-29T17:07:51.795Z,28.73
2024-02-29T17:10:20.040Z,23.90
2024-02-29T17:12:48.029Z,24.53
2024-02-29T17:15:16.300Z,40.80
2024-02-29T17:17:44.399Z,25.80
2024-02-29T17:20:12.905Z,26.33
2024-02-29T17:22:44.214Z,25.47
2024-02-29T17:25:12.544Z,23.67
2024-02-29T17:27:40.799Z,28.03
2024-02-29T17:30:12.876Z,26.67
2024-02-29T17:32:41.093Z,25.83
2024-02-29T17:35:10.092Z,26.40
2024-02-29T17:37:38.522Z,25.73
2024-02-29T17:40:09.283Z,27.27
2024-02-29T17:42:37.399Z,27.87
2024-02-29T17:45:06.064Z,22.70
2024-02-29T17:47:34.049Z,25.90
2024-02-29T17:50:02.078Z,26.53
2024-02-29T17:52:30.058Z,26.97
2024-02-29T17:54:59.020Z,26.30
2024-02-29T17:57:28.522Z,26.57
2024-02-29T17:59:57.141Z,23.00
2024-02-29T18:02:25.127Z,26.17
2024-02-29T18:04:54.705Z,26.43
2024-02-29T18:07:22.661Z,25.87
2024-02-29T18:09:50.629Z,29.40
2024-02-29T18:12:18.618Z,26.83
2024-02-29T18:14:47.912Z,28.93
2024-02-29T18:17:16.489Z,26.47
2024-02-29T18:19:44.426Z,25.67
2024-02-29T18:22:12.411Z,29.33
2024-02-29T18:24:41.001Z,26.60
2024-02-29T18:27:10.166Z,25.40
2024-02-29T18:29:38.078Z,24.27
2024-02-29T18:32:08.370Z,25.40
2024-02-29T18:34:36.505Z,26.57
2024-02-29T18:37:04.708Z,26.83
2024-02-29T18:39:32.713Z,26.10
2024-02-29T18:42:00.722Z,25.93
2024-02-29T18:44:28.701Z,26.97
2024-02-29T18:46:57.000Z,21.53
2024-02-29T18:49:26.504Z,26.37
2024-02-29T18:51:55.142Z,25.37
2024-02-29T18:54:23.171Z,27.03
2024-02-29T18:56:51.246Z,25.97
2024-02-29T18:59:20.267Z,25.80
2024-02-29T19:01:50.698Z,26.53
2024-02-29T19:04:18.861Z,24.93
2024-02-29T19:06:49.686Z,25.20
2024-02-29T19:09:17.841Z,23.67
2024-02-29T19:11:46.092Z,24.60
2024-02-29T19:14:14.221Z,28.23
2024-02-29T19:16:42.669Z,25.17
2024-02-29T19:19:11.894Z,26.63
2024-02-29T19:21:40.223Z,27.10
2024-02-29T19:24:11.898Z,27.13
2024-02-29T19:26:39.840Z,24.40
2024-02-29T19:29:07.961Z,24.90
2024-02-29T19:31:36.107Z,24.67
2024-02-29T19:34:04.988Z,22.47
2024-02-29T19:36:33.121Z,23.60
2024-02-29T19:39:01.229Z,24.03
2024-02-29T19:41:30.611Z,24.13
2024-02-29T19:43:58.654Z,28.53
2024-02-29T19:46:26.769Z,23.03
2024-02-29T19:48:55.459Z,24.00
2024-02-29T19:51:23.646Z,25.67
2024-02-29T19:53:51.999Z,25.43
2024-02-29T19:56:20.902Z,22.10
2024-02-29T19:58:50.241Z,27.23
2024-02-29T20:01:18.396Z,25.03
2024-02-29T20:03:46.350Z,25.53
2024-02-29T20:06:14.389Z,28.50
2024-02-29T20:08:43.606Z,23.03
2024-02-29T20:11:11.630Z,24.43
2024-02-29T20:13:39.621Z,26.73
2024-02-29T20:16:09.729Z,27.50
2024-02-29T20:18:37.817Z,24.20
2024-02-29T20:21:06.430Z,23.60
2024-02-29T20:23:34.398Z,22.20
2024-02-29T20:26:02.292Z,25.10
2024-02-29T20:28:31.745Z,22.40
2024-02-29T20:30:59.714Z,23.97
2024-02-29T20:33:29.269Z,25.57
2024-02-29T20:35:57.179Z,24.07
2024-02-29T20:38:25.137Z,24.33
2024-02-29T20:40:53.061Z,24.30
2024-02-29T20:43:21.250Z,25.73
2024-02-29T20:45:49.842Z,23.33
2024-02-29T20:48:17.804Z,26.30
2024-02-29T20:50:47.078Z,24.30
2024-02-29T20:53:16.906Z,25.47
2024-02-29T20:55:44.952Z,25.93
2024-02-29T20:58:12.995Z,22.77
2024-02-29T21:00:40.977Z,24.40
2024-02-29T21:03:09.430Z,25.30
2024-02-29T21:05:37.443Z,25.37
2024-02-29T21:08:07.359Z,27.53
2024-02-29T21:10:35.782Z,24.43
2024-02-29T21:13:04.967Z,25.80
2024-02-29T21:15:33.234Z,24.57
2024-02-29T21:18:01.312Z,26.37
2024-02-29T21:20:29.360Z,25.17
2024-02-29T21:22:57.345Z,26.77
2024-02-29T21:25:27.168Z,26.97
2024-02-29T21:27:55.420Z,25.43
2024-02-29T21:30:23.591Z,26.07
2024-02-29T21:32:51.566Z,25.67
2024-02-29T21:35:20.348Z,25.03
2024-02-29T21:37:48.285Z,26.93
2024-02-29T21:40:16.408Z,22.47
2024-02-29T21:42:45.756Z,23.73
2024-02-29T21:45:13.881Z,24.00
2024-02-29T21:47:42.342Z,24.00
2024-02-29T21:50:11.645Z,25.83
2024-02-29T21:52:39.609Z,25.70
2024-02-29T21:55:08.674Z,26.30
2024-02-29T21:57:36.730Z,26.10
2024-02-29T22:00:09.477Z,26.37
2024-02-29T22:02:47.425Z,29.67
2024-02-29T22:05:15.942Z,26.83
2024-02-29T22:07:43.919Z,27.43
2024-02-29T22:10:14.909Z,24.90
2024-02-29T22:12:43.328Z,31.40
2024-02-29T22:15:13.608Z,30.60
2024-02-29T22:17:41.636Z,29.47
2024-02-29T22:20:11.029Z,32.60
2024-02-29T22:22:39.195Z,25.63
2024-02-29T22:25:08.612Z,28.07
2024-02-29T22:27:36.587Z,25.80
2024-02-29T22:30:07.945Z,27.10
2024-02-29T22:32:43.438Z,31.07
2024-02-29T22:35:11.695Z,30.67
2024-02-29T22:37:39.916Z,30.60
2024-02-29T22:40:09.649Z,32.00
2024-02-29T22:42:37.934Z,30.93
2024-02-29T22:45:07.184Z,31.60
2024-02-29T22:47:35.151Z,27.93
2024-02-29T22:50:05.564Z,29.97
2024-02-29T22:52:33.529Z,29.43
2024-02-29T22:55:03.652Z,29.67
2024-02-29T22:57:31.658Z,26.27
2024-02-29T23:00:00.135Z,27.73
2024-02-29T23:02:28.941Z,31.60
2024-02-29T23:04:57.095Z,28.43
2024-02-29T23:07:29.488Z,28.30
2024-02-29T23:09:57.548Z,28.53
2024-02-29T23:12:25.805Z,28.77
2024-02-29T23:14:53.935Z,29.03
2024-02-29T23:17:22.049Z,32.10
2024-02-29T23:19:51.680Z,30.83
2024-02-29T23:22:20.921Z,31.30
2024-02-29T23:24:51.500Z,31.03
2024-02-29T23:27:19.599Z,31.20
2024-02-29T23:29:49.793Z,29.87
2024-02-29T23:32:17.833Z,29.97
2024-02-29T23:34:45.867Z,30.03
2024-02-29T23:37:16.259Z,33.07
2024-02-29T23:39:44.668Z,28.17
2024-02-29T23:42:14.046Z,28.70
2024-02-29T23:44:42.168Z,27.43
2024-02-29T23:47:10.193Z,26.57
2024-02-29T23:49:38.148Z,26.43
2024-02-29T23:52:07.007Z,27.80
2024-02-29T23:54:34.984Z,28.97
2024-02-29T23:57:03.077Z,29.60
2024-02-29T23:59:32.399Z,29.80
